sensor_id;sensor_type;location;lat;lon;timestamp;pressure;altitude;pressure_sealevel;temperature;humidity
73016;BME280;61893;50.074;14.440;2022-08-21T00:01:58;98434.88;;;17.05;86.56
73016;BME280;61893;50.074;14.440;2022-08-21T00:04:31;98442.28;;;17.03;86.13
73016;BME280;61893;50.074;14.440;2022-08-21T00:07:00;98447.06;;;17.08;86.04
73016;BME280;61893;50.074;14.440;2022-08-21T00:09:34;98448.66;;;17.02;86.26
73016;BME280;61893;50.074;14.440;2022-08-21T00:12:00;98449.56;;;17.09;85.75
73016;BME280;61893;50.074;14.440;2022-08-21T00:14:32;98448.31;;;17.05;85.56
73016;BME280;61893;50.074;14.440;2022-08-21T00:17:02;98436.31;;;17.08;84.95
73016;BME280;61893;50.074;14.440;2022-08-21T00:19:31;98447.69;;;17.10;85.79
73016;BME280;61893;50.074;14.440;2022-08-21T00:21:57;98436.13;;;17.09;85.69
73016;BME280;61893;50.074;14.440;2022-08-21T00:24:26;98444.38;;;17.08;86.66
73016;BME280;61893;50.074;14.440;2022-08-21T00:26:55;98443.53;;;17.07;86.61
73016;BME280;61893;50.074;14.440;2022-08-21T00:29:31;98436.56;;;17.13;84.91
73016;BME280;61893;50.074;14.440;2022-08-21T00:32:06;98436.97;;;17.17;85.36
73016;BME280;61893;50.074;14.440;2022-08-21T00:34:38;98438.53;;;16.98;85.98
73016;BME280;61893;50.074;14.440;2022-08-21T00:37:03;98434.88;;;17.05;85.75
73016;BME280;61893;50.074;14.440;2022-08-21T00:39:34;98430.72;;;17.03;85.89
73016;BME280;61893;50.074;14.440;2022-08-21T00:42:00;98428.22;;;17.01;85.99
73016;BME280;61893;50.074;14.440;2022-08-21T00:44:27;98431.81;;;17.15;85.56
73016;BME280;61893;50.074;14.440;2022-08-21T00:46:53;98430.34;;;17.13;85.28
73016;BME280;61893;50.074;14.440;2022-08-21T00:49:19;98428.25;;;17.08;85.50
73016;BME280;61893;50.074;14.440;2022-08-21T00:51:51;98430.50;;;17.04;85.80
73016;BME280;61893;50.074;14.440;2022-08-21T00:54:22;98426.19;;;17.10;84.84
73016;BME280;61893;50.074;14.440;2022-08-21T00:56:59;98430.03;;;16.94;86.47
73016;BME280;61893;50.074;14.440;2022-08-21T00:59:44;98428.41;;;17.00;86.38
73016;BME280;61893;50.074;14.440;2022-08-21T01:02:13;98429.63;;;16.97;86.00
73016;BME280;61893;50.074;14.440;2022-08-21T01:05:29;98427.25;;;17.09;85.83
73016;BME280;61893;50.074;14.440;2022-08-21T01:07:55;98425.28;;;16.96;86.17
73016;BME280;61893;50.074;14.440;2022-08-21T01:10:27;98431.03;;;16.93;85.87
73016;BME280;61893;50.074;14.440;2022-08-21T01:13:23;98424.25;;;16.97;85.73
73016;BME280;61893;50.074;14.440;2022-08-21T01:16:13;98423.88;;;17.00;85.65
73016;BME280;61893;50.074;14.440;2022-08-21T01:18:44;98418.88;;;16.97;85.70
73016;BME280;61893;50.074;14.440;2022-08-21T01:21:37;98417.88;;;17.05;85.05
73016;BME280;61893;50.074;14.440;2022-08-21T01:24:12;98413.72;;;17.02;85.58
73016;BME280;61893;50.074;14.440;2022-08-21T01:27:19;98409.59;;;17.00;86.68
73016;BME280;61893;50.074;14.440;2022-08-21T01:30:43;98411.25;;;17.01;86.31
73016;BME280;61893;50.074;14.440;2022-08-21T01:33:42;98401.28;;;16.95;86.30
73016;BME280;61893;50.074;14.440;2022-08-21T01:36:17;98409.16;;;16.96;86.32
73016;BME280;61893;50.074;14.440;2022-08-21T01:38:56;98414.91;;;16.93;85.89
73016;BME280;61893;50.074;14.440;2022-08-21T01:41:48;98414.38;;;17.04;85.57
73016;BME280;61893;50.074;14.440;2022-08-21T01:44:25;98407.25;;;16.90;86.11
73016;BME280;61893;50.074;14.440;2022-08-21T01:46:53;98409.78;;;16.98;85.90
73016;BME280;61893;50.074;14.440;2022-08-21T01:49:59;98406.00;;;16.86;86.93
73016;BME280;61893;50.074;14.440;2022-08-21T01:52:25;98402.84;;;16.82;86.81
73016;BME280;61893;50.074;14.440;2022-08-21T01:55:20;98401.03;;;16.89;86.79
73016;BME280;61893;50.074;14.440;2022-08-21T01:57:53;98398.34;;;16.89;86.87
73016;BME280;61893;50.074;14.440;2022-08-21T02:01:06;98392.94;;;16.83;87.01
73016;BME280;61893;50.074;14.440;2022-08-21T02:03:31;98403.91;;;16.88;86.95
73016;BME280;61893;50.074;14.440;2022-08-21T02:06:21;98395.63;;;16.83;87.07
73016;BME280;61893;50.074;14.440;2022-08-21T02:08:46;98397.25;;;16.77;87.59
73016;BME280;61893;50.074;14.440;2022-08-21T02:11:19;98391.00;;;16.77;87.70
73016;BME280;61893;50.074;14.440;2022-08-21T02:13:45;98385.72;;;16.83;86.98
73016;BME280;61893;50.074;14.440;2022-08-21T02:16:11;98385.28;;;16.80;87.86
73016;BME280;61893;50.074;14.440;2022-08-21T02:18:49;98383.41;;;16.80;87.58
73016;BME280;61893;50.074;14.440;2022-08-21T02:21:15;98383.41;;;16.80;87.66
73016;BME280;61893;50.074;14.440;2022-08-21T02:23:40;98382.38;;;16.81;87.71
73016;BME280;61893;50.074;14.440;2022-08-21T02:26:11;98382.59;;;16.80;88.04
73016;BME280;61893;50.074;14.440;2022-08-21T02:28:39;98383.59;;;16.79;88.27
73016;BME280;61893;50.074;14.440;2022-08-21T02:31:05;98377.59;;;16.77;88.35
73016;BME280;61893;50.074;14.440;2022-08-21T02:33:31;98372.22;;;16.77;88.20
73016;BME280;61893;50.074;14.440;2022-08-21T02:36:11;98382.59;;;16.80;88.37
73016;BME280;61893;50.074;14.440;2022-08-21T02:38:48;98378.22;;;16.79;88.42
73016;BME280;61893;50.074;14.440;2022-08-21T02:41:31;98373.44;;;16.74;88.46
73016;BME280;61893;50.074;14.440;2022-08-21T02:44:18;98380.63;;;16.74;89.02
73016;BME280;61893;50.074;14.440;2022-08-21T02:47:29;98373.22;;;16.76;88.76
73016;BME280;61893;50.074;14.440;2022-08-21T02:50:45;98377.13;;;16.73;89.02
73016;BME280;61893;50.074;14.440;2022-08-21T02:53:19;98378.81;;;16.74;89.07
73016;BME280;61893;50.074;14.440;2022-08-21T02:55:52;98383.72;;;16.71;89.25
73016;BME280;61893;50.074;14.440;2022-08-21T02:58:45;98379.38;;;16.70;89.77
73016;BME280;61893;50.074;14.440;2022-08-21T03:01:31;98380.03;;;16.72;89.57
73016;BME280;61893;50.074;14.440;2022-08-21T03:04:05;98377.59;;;16.77;88.94
73016;BME280;61893;50.074;14.440;2022-08-21T03:06:34;98383.31;;;16.74;89.73
73016;BME280;61893;50.074;14.440;2022-08-21T03:08:59;98382.50;;;16.73;89.47
73016;BME280;61893;50.074;14.440;2022-08-21T03:11:30;98376.56;;;16.78;89.36
73016;BME280;61893;50.074;14.440;2022-08-21T03:14:06;98381.28;;;16.76;89.79
73016;BME280;61893;50.074;14.440;2022-08-21T03:16:31;98385.97;;;16.67;89.90
73016;BME280;61893;50.074;14.440;2022-08-21T03:18:57;98387.25;;;16.71;89.85
73016;BME280;61893;50.074;14.440;2022-08-21T03:21:26;98388.50;;;16.75;89.88
73016;BME280;61893;50.074;14.440;2022-08-21T03:23:54;98383.09;;;16.69;90.08
73016;BME280;61893;50.074;14.440;2022-08-21T03:26:25;98388.00;;;16.65;90.45
73016;BME280;61893;50.074;14.440;2022-08-21T03:28:51;98385.13;;;16.66;90.06
73016;BME280;61893;50.074;14.440;2022-08-21T03:31:17;98385.19;;;16.73;90.35
73016;BME280;61893;50.074;14.440;2022-08-21T03:33:48;98391.78;;;16.71;89.97
73016;BME280;61893;50.074;14.440;2022-08-21T03:36:31;98391.66;;;16.79;90.10
73016;BME280;61893;50.074;14.440;2022-08-21T03:39:35;98389.72;;;16.73;90.28
73016;BME280;61893;50.074;14.440;2022-08-21T03:42:06;98396.13;;;16.72;90.36
73016;BME280;61893;50.074;14.440;2022-08-21T03:45:21;98388.66;;;16.67;90.75
73016;BME280;61893;50.074;14.440;2022-08-21T03:47:55;98395.31;;;16.71;89.97
73016;BME280;61893;50.074;14.440;2022-08-21T03:50:24;98401.66;;;16.63;90.61
73016;BME280;61893;50.074;14.440;2022-08-21T03:52:50;98393.63;;;16.70;90.07
73016;BME280;61893;50.074;14.440;2022-08-21T03:55:25;98397.13;;;16.71;90.11
73016;BME280;61893;50.074;14.440;2022-08-21T03:58:09;98400.22;;;16.67;89.94
73016;BME280;61893;50.074;14.440;2022-08-21T04:00:38;98395.50;;;16.70;90.61
73016;BME280;61893;50.074;14.440;2022-08-21T04:03:19;98398.56;;;16.66;90.61
73016;BME280;61893;50.074;14.440;2022-08-21T04:05:51;98405.16;;;16.64;90.39
73016;BME280;61893;50.074;14.440;2022-08-21T04:08:18;98406.19;;;16.63;90.30
73016;BME280;61893;50.074;14.440;2022-08-21T04:10:49;98414.03;;;16.64;90.29
73016;BME280;61893;50.074;14.440;2022-08-21T04:13:16;98413.22;;;16.64;90.50
73016;BME280;61893;50.074;14.440;2022-08-21T04:15:44;98420.25;;;16.65;90.18
73016;BME280;61893;50.074;14.440;2022-08-21T04:18:28;98423.97;;;16.64;90.46
73016;BME280;61893;50.074;14.440;2022-08-21T04:21:11;98423.69;;;16.59;90.87
73016;BME280;61893;50.074;14.440;2022-08-21T04:24:07;98420.16;;;16.52;91.22
73016;BME280;61893;50.074;14.440;2022-08-21T04:27:14;98420.75;;;16.54;91.21
73016;BME280;61893;50.074;14.440;2022-08-21T04:29:40;98426.59;;;16.57;90.85
73016;BME280;61893;50.074;14.440;2022-08-21T04:32:09;98429.22;;;16.51;91.18
73016;BME280;61893;50.074;14.440;2022-08-21T04:34:48;98421.66;;;16.61;90.17
73016;BME280;61893;50.074;14.440;2022-08-21T04:37:28;98430.56;;;16.61;91.27
73016;BME280;61893;50.074;14.440;2022-08-21T04:39:54;98438.56;;;16.55;91.25
73016;BME280;61893;50.074;14.440;2022-08-21T04:42:24;98440.66;;;16.59;91.15
73016;BME280;61893;50.074;14.440;2022-08-21T04:44:49;98444.31;;;16.52;91.42
73016;BME280;61893;50.074;14.440;2022-08-21T04:47:28;98436.53;;;16.57;90.95
73016;BME280;61893;50.074;14.440;2022-08-21T04:49:54;98443.97;;;16.61;90.83
73016;BME280;61893;50.074;14.440;2022-08-21T04:52:23;98444.25;;;16.66;90.67
73016;BME280;61893;50.074;14.440;2022-08-21T04:54:50;98441.03;;;16.56;91.05
73016;BME280;61893;50.074;14.440;2022-08-21T04:57:26;98442.91;;;16.56;90.98
73016;BME280;61893;50.074;14.440;2022-08-21T04:59:58;98443.53;;;16.58;91.10
73016;BME280;61893;50.074;14.440;2022-08-21T05:02:36;98443.72;;;16.56;90.95
73016;BME280;61893;50.074;14.440;2022-08-21T05:05:16;98444.63;;;16.63;90.50
73016;BME280;61893;50.074;14.440;2022-08-21T05:08:05;98444.50;;;16.50;90.93
73016;BME280;61893;50.074;14.440;2022-08-21T05:10:46;98438.16;;;16.58;90.88
73016;BME280;61893;50.074;14.440;2022-08-21T05:13:17;98441.69;;;16.58;91.33
73016;BME280;61893;50.074;14.440;2022-08-21T05:15:46;98440.25;;;16.62;91.12
73016;BME280;61893;50.074;14.440;2022-08-21T05:18:40;98437.41;;;16.64;91.00
73016;BME280;61893;50.074;14.440;2022-08-21T05:21:06;98450.88;;;16.71;91.46
73016;BME280;61893;50.074;14.440;2022-08-21T05:23:32;98449.56;;;16.60;91.44
73016;BME280;61893;50.074;14.440;2022-08-21T05:26:09;98463.03;;;16.66;91.31
73016;BME280;61893;50.074;14.440;2022-08-21T05:28:37;98465.69;;;16.60;91.63
73016;BME280;61893;50.074;14.440;2022-08-21T05:31:03;98474.88;;;16.72;91.31
73016;BME280;61893;50.074;14.440;2022-08-21T05:33:29;98479.69;;;16.55;91.61
73016;BME280;61893;50.074;14.440;2022-08-21T05:35:55;98473.66;;;16.53;91.63
73016;BME280;61893;50.074;14.440;2022-08-21T05:38:47;98478.47;;;16.58;91.48
73016;BME280;61893;50.074;14.440;2022-08-21T05:41:25;98475.34;;;16.54;91.83
73016;BME280;61893;50.074;14.440;2022-08-21T05:44:01;98477.13;;;16.69;90.75
73016;BME280;61893;50.074;14.440;2022-08-21T05:46:47;98473.84;;;16.73;90.03
73016;BME280;61893;50.074;14.440;2022-08-21T05:49:28;98460.88;;;16.77;90.26
73016;BME280;61893;50.074;14.440;2022-08-21T05:52:11;98473.56;;;16.68;90.31
73016;BME280;61893;50.074;14.440;2022-08-21T05:54:50;98471.16;;;16.73;89.53
73016;BME280;61893;50.074;14.440;2022-08-21T05:57:20;98469.28;;;16.74;89.32
73016;BME280;61893;50.074;14.440;2022-08-21T05:59:45;98476.81;;;16.78;89.77
73016;BME280;61893;50.074;14.440;2022-08-21T06:02:17;98470.31;;;16.73;89.30
73016;BME280;61893;50.074;14.440;2022-08-21T06:04:48;98469.94;;;16.76;88.77
73016;BME280;61893;50.074;14.440;2022-08-21T06:07:28;98472.19;;;16.72;89.34
73016;BME280;61893;50.074;14.440;2022-08-21T06:09:54;98463.38;;;16.78;89.21
73016;BME280;61893;50.074;14.440;2022-08-21T06:12:25;98458.19;;;16.77;88.50
73016;BME280;61893;50.074;14.440;2022-08-21T06:14:51;98469.00;;;16.83;88.64
73016;BME280;61893;50.074;14.440;2022-08-21T06:17:36;98469.44;;;16.87;87.69
73016;BME280;61893;50.074;14.440;2022-08-21T06:20:03;98473.66;;;16.96;87.80
73016;BME280;61893;50.074;14.440;2022-08-21T06:22:32;98475.13;;;16.99;86.96
73016;BME280;61893;50.074;14.440;2022-08-21T06:24:57;98478.44;;;17.01;86.88
73016;BME280;61893;50.074;14.440;2022-08-21T06:27:23;98476.09;;;16.91;86.91
73016;BME280;61893;50.074;14.440;2022-08-21T06:29:49;98482.41;;;17.05;85.84
73016;BME280;61893;50.074;14.440;2022-08-21T06:32:23;98477.88;;;17.05;86.00
73016;BME280;61893;50.074;14.440;2022-08-21T06:35:11;98481.97;;;17.01;86.52
73016;BME280;61893;50.074;14.440;2022-08-21T06:37:37;98489.25;;;17.07;86.07
73016;BME280;61893;50.074;14.440;2022-08-21T06:40:04;98485.38;;;17.17;86.16
73016;BME280;61893;50.074;14.440;2022-08-21T06:42:31;98492.16;;;17.06;86.48
73016;BME280;61893;50.074;14.440;2022-08-21T06:45:27;98485.19;;;17.18;85.87
73016;BME280;61893;50.074;14.440;2022-08-21T06:48:01;98490.31;;;17.13;85.73
73016;BME280;61893;50.074;14.440;2022-08-21T06:50:44;98489.00;;;17.02;85.83
73016;BME280;61893;50.074;14.440;2022-08-21T06:53:12;98492.38;;;17.11;86.32
73016;BME280;61893;50.074;14.440;2022-08-21T06:55:39;98484.66;;;17.01;86.17
73016;BME280;61893;50.074;14.440;2022-08-21T06:58:06;98490.47;;;17.05;85.73
73016;BME280;61893;50.074;14.440;2022-08-21T07:00:48;98493.16;;;17.05;86.06
73016;BME280;61893;50.074;14.440;2022-08-21T07:03:26;98490.66;;;17.03;85.60
73016;BME280;61893;50.074;14.440;2022-08-21T07:05:53;98491.50;;;17.04;85.69
73016;BME280;61893;50.074;14.440;2022-08-21T07:08:25;98493.00;;;17.13;85.58
73016;BME280;61893;50.074;14.440;2022-08-21T07:10:52;98494.75;;;16.99;85.90
73016;BME280;61893;50.074;14.440;2022-08-21T07:13:25;98500.53;;;16.96;84.89
73016;BME280;61893;50.074;14.440;2022-08-21T07:15:50;98503.34;;;17.09;84.78
73016;BME280;61893;50.074;14.440;2022-08-21T07:18:16;98494.44;;;17.09;84.37
73016;BME280;61893;50.074;14.440;2022-08-21T07:20:45;98491.09;;;17.07;84.42
73016;BME280;61893;50.074;14.440;2022-08-21T07:23:32;98502.16;;;17.19;83.93
73016;BME280;61893;50.074;14.440;2022-08-21T07:26:08;98510.56;;;17.09;83.69
73016;BME280;61893;50.074;14.440;2022-08-21T07:28:52;98507.63;;;17.04;83.75
73016;BME280;61893;50.074;14.440;2022-08-21T07:31:31;98511.59;;;17.36;82.26
73016;BME280;61893;50.074;14.440;2022-08-21T07:33:59;98502.91;;;17.34;82.14
73016;BME280;61893;50.074;14.440;2022-08-21T07:36:31;98505.78;;;17.32;82.62
73016;BME280;61893;50.074;14.440;2022-08-21T07:39:13;98504.25;;;17.51;81.96
73016;BME280;61893;50.074;14.440;2022-08-21T07:41:46;98506.69;;;17.46;81.76
73016;BME280;61893;50.074;14.440;2022-08-21T07:44:12;98504.84;;;17.47;81.49
73016;BME280;61893;50.074;14.440;2022-08-21T07:46:43;98500.16;;;17.97;80.51
73016;BME280;61893;50.074;14.440;2022-08-21T07:49:17;98501.09;;;18.17;78.15
73016;BME280;61893;50.074;14.440;2022-08-21T07:51:43;98500.94;;;17.91;78.37
73016;BME280;61893;50.074;14.440;2022-08-21T07:54:08;98510.56;;;17.72;79.01
73016;BME280;61893;50.074;14.440;2022-08-21T07:56:34;98507.84;;;18.00;77.88
73016;BME280;61893;50.074;14.440;2022-08-21T07:59:00;98511.97;;;17.96;78.18
73016;BME280;61893;50.074;14.440;2022-08-21T08:01:28;98516.34;;;18.04;77.66
73016;BME280;61893;50.074;14.440;2022-08-21T08:04:00;98516.78;;;18.07;78.00
73016;BME280;61893;50.074;14.440;2022-08-21T08:06:25;98509.94;;;18.11;76.67
73016;BME280;61893;50.074;14.440;2022-08-21T08:08:51;98515.16;;;18.19;76.42
73016;BME280;61893;50.074;14.440;2022-08-21T08:11:29;98519.47;;;18.07;76.26
73016;BME280;61893;50.074;14.440;2022-08-21T08:14:12;98501.28;;;18.16;75.82
73016;BME280;61893;50.074;14.440;2022-08-21T08:16:38;98512.72;;;18.31;75.82
73016;BME280;61893;50.074;14.440;2022-08-21T08:19:46;98506.66;;;18.22;76.04
73016;BME280;61893;50.074;14.440;2022-08-21T08:22:18;98505.19;;;18.13;75.93
73016;BME280;61893;50.074;14.440;2022-08-21T08:24:50;98508.81;;;18.40;75.91
73016;BME280;61893;50.074;14.440;2022-08-21T08:27:16;98502.22;;;18.56;75.60
73016;BME280;61893;50.074;14.440;2022-08-21T08:30:16;98512.38;;;18.67;74.89
73016;BME280;61893;50.074;14.440;2022-08-21T08:33:00;98501.41;;;18.69;73.29
73016;BME280;61893;50.074;14.440;2022-08-21T08:35:51;98506.53;;;18.37;75.36
73016;BME280;61893;50.074;14.440;2022-08-21T08:38:24;98507.22;;;18.66;74.99
73016;BME280;61893;50.074;14.440;2022-08-21T08:41:10;98497.22;;;18.60;73.72
73016;BME280;61893;50.074;14.440;2022-08-21T08:43:41;98504.53;;;18.73;73.88
73016;BME280;61893;50.074;14.440;2022-08-21T08:46:36;98501.66;;;19.14;73.29
73016;BME280;61893;50.074;14.440;2022-08-21T08:49:20;98501.44;;;19.35;72.24
73016;BME280;61893;50.074;14.440;2022-08-21T08:52:07;98498.13;;;19.27;72.13
73016;BME280;61893;50.074;14.440;2022-08-21T08:55:11;98498.13;;;19.27;72.04
73016;BME280;61893;50.074;14.440;2022-08-21T08:57:39;98498.16;;;19.00;71.94
73016;BME280;61893;50.074;14.440;2022-08-21T09:00:20;98497.03;;;18.68;73.17
73016;BME280;61893;50.074;14.440;2022-08-21T09:02:55;98491.91;;;19.20;71.68
73016;BME280;61893;50.074;14.440;2022-08-21T09:05:49;98489.63;;;18.77;72.54
73016;BME280;61893;50.074;14.440;2022-08-21T09:08:50;98495.88;;;18.77;72.60
73016;BME280;61893;50.074;14.440;2022-08-21T09:11:29;98494.22;;;18.89;72.92
73016;BME280;61893;50.074;14.440;2022-08-21T09:14:10;98487.34;;;19.13;71.95
73016;BME280;61893;50.074;14.440;2022-08-21T09:17:30;98490.41;;;19.70;70.17
73016;BME280;61893;50.074;14.440;2022-08-21T09:29:06;98490.19;;;19.58;70.20
73016;BME280;61893;50.074;14.440;2022-08-21T09:31:36;98496.25;;;19.41;70.47
73016;BME280;61893;50.074;14.440;2022-08-21T09:34:26;98492.50;;;19.55;70.04
73016;BME280;61893;50.074;14.440;2022-08-21T09:36:52;98492.25;;;19.76;69.75
73016;BME280;61893;50.074;14.440;2022-08-21T09:39:38;98490.63;;;19.69;69.53
73016;BME280;61893;50.074;14.440;2022-08-21T09:42:06;98487.91;;;19.55;70.08
73016;BME280;61893;50.074;14.440;2022-08-21T09:44:40;98499.53;;;19.56;70.42
73016;BME280;61893;50.074;14.440;2022-08-21T09:47:19;98496.00;;;19.55;70.30
73016;BME280;61893;50.074;14.440;2022-08-21T09:49:48;98492.72;;;19.47;70.61
73016;BME280;61893;50.074;14.440;2022-08-21T09:52:23;98492.41;;;19.88;69.16
73016;BME280;61893;50.074;14.440;2022-08-21T09:55:15;98488.53;;;19.77;69.77
73016;BME280;61893;50.074;14.440;2022-08-21T09:58:04;98486.63;;;19.65;70.27
73016;BME280;61893;50.074;14.440;2022-08-21T10:00:34;98494.16;;;19.69;69.33
73016;BME280;61893;50.074;14.440;2022-08-21T10:03:27;98490.28;;;19.97;68.12
73016;BME280;61893;50.074;14.440;2022-08-21T10:06:04;98482.81;;;19.99;68.64
73016;BME280;61893;50.074;14.440;2022-08-21T10:08:38;98487.25;;;19.60;69.39
73016;BME280;61893;50.074;14.440;2022-08-21T10:11:23;98490.00;;;20.18;68.15
73016;BME280;61893;50.074;14.440;2022-08-21T10:14:05;98487.53;;;20.48;66.89
73016;BME280;61893;50.074;14.440;2022-08-21T10:16:58;98491.59;;;20.33;66.71
73016;BME280;61893;50.074;14.440;2022-08-21T10:19:37;98493.47;;;20.70;65.99
73016;BME280;61893;50.074;14.440;2022-08-21T10:33:22;98475.94;;;21.05;63.97
73016;BME280;61893;50.074;14.440;2022-08-21T10:35:56;98473.78;;;21.13;63.78
73016;BME280;61893;50.074;14.440;2022-08-21T10:44:40;98478.66;;;21.05;62.05
73016;BME280;61893;50.074;14.440;2022-08-21T10:47:24;98467.13;;;21.34;61.19
73016;BME280;61893;50.074;14.440;2022-08-21T10:50:17;98465.94;;;21.30;60.49
73016;BME280;61893;50.074;14.440;2022-08-21T10:53:11;98462.03;;;21.26;61.03
73016;BME280;61893;50.074;14.440;2022-08-21T10:55:44;98459.78;;;20.98;61.84
73016;BME280;61893;50.074;14.440;2022-08-21T10:58:31;98461.38;;;20.81;62.70
73016;BME280;61893;50.074;14.440;2022-08-21T11:01:22;98461.84;;;21.21;61.69
73016;BME280;61893;50.074;14.440;2022-08-21T11:06:44;98462.69;;;21.47;60.76
73016;BME280;61893;50.074;14.440;2022-08-21T11:09:17;98462.47;;;20.98;62.52
73016;BME280;61893;50.074;14.440;2022-08-21T11:12:05;98466.94;;;21.11;60.93
73016;BME280;61893;50.074;14.440;2022-08-21T11:15:01;98452.19;;;21.32;59.89
73016;BME280;61893;50.074;14.440;2022-08-21T11:17:45;98450.75;;;21.29;59.93
73016;BME280;61893;50.074;14.440;2022-08-21T11:20:28;98437.00;;;21.86;58.29
73016;BME280;61893;50.074;14.440;2022-08-21T11:23:07;98445.13;;;21.86;57.62
73016;BME280;61893;50.074;14.440;2022-08-21T11:26:27;98442.28;;;22.18;57.41
73016;BME280;61893;50.074;14.440;2022-08-21T11:54:57;98446.06;;;21.62;60.44
73016;BME280;61893;50.074;14.440;2022-08-21T11:57:37;98436.44;;;22.33;57.11
73016;BME280;61893;50.074;14.440;2022-08-21T12:00:31;98439.78;;;22.46;57.63
73016;BME280;61893;50.074;14.440;2022-08-21T12:06:26;98438.00;;;21.73;59.88
73016;BME280;61893;50.074;14.440;2022-08-21T12:09:32;98436.56;;;21.71;58.87
73016;BME280;61893;50.074;14.440;2022-08-21T12:12:27;98427.56;;;22.79;54.32
73016;BME280;61893;50.074;14.440;2022-08-21T12:17:50;98428.69;;;23.02;52.23
73016;BME280;61893;50.074;14.440;2022-08-21T12:20:26;98431.53;;;23.30;51.83
73016;BME280;61893;50.074;14.440;2022-08-21T12:23:16;98434.75;;;22.62;52.73
73016;BME280;61893;50.074;14.440;2022-08-21T12:25:47;98426.69;;;23.32;50.01
73016;BME280;61893;50.074;14.440;2022-08-21T12:28:31;98425.81;;;22.73;51.92
73016;BME280;61893;50.074;14.440;2022-08-21T12:30:57;98425.66;;;22.26;52.71
73016;BME280;61893;50.074;14.440;2022-08-21T12:36:18;98430.59;;;23.25;50.66
73016;BME280;61893;50.074;14.440;2022-08-21T12:39:15;98414.38;;;22.94;50.89
73016;BME280;61893;50.074;14.440;2022-08-21T12:42:24;98425.81;;;22.73;52.26
73016;BME280;61893;50.074;14.440;2022-08-21T12:44:59;98423.38;;;24.52;48.31
73016;BME280;61893;50.074;14.440;2022-08-21T12:47:45;98418.94;;;24.45;48.22
73016;BME280;61893;50.074;14.440;2022-08-21T12:53:23;98408.69;;;23.78;49.21
73016;BME280;61893;50.074;14.440;2022-08-21T12:56:21;98414.94;;;23.67;48.23
73016;BME280;61893;50.074;14.440;2022-08-21T12:59:00;98413.25;;;24.47;46.28
73016;BME280;61893;50.074;14.440;2022-08-21T13:01:51;98411.34;;;23.38;48.06
73016;BME280;61893;50.074;14.440;2022-08-21T13:04:40;98405.97;;;23.78;47.17
73016;BME280;61893;50.074;14.440;2022-08-21T13:07:24;98401.78;;;23.24;48.67
73016;BME280;61893;50.074;14.440;2022-08-21T13:09:54;98407.09;;;24.68;45.69
73016;BME280;61893;50.074;14.440;2022-08-21T13:12:58;98405.44;;;26.01;42.71
73016;BME280;61893;50.074;14.440;2022-08-21T13:15:28;98399.81;;;24.91;44.07
73016;BME280;61893;50.074;14.440;2022-08-21T13:18:35;98406.59;;;24.26;46.02
73016;BME280;61893;50.074;14.440;2022-08-21T13:21:15;98409.28;;;24.55;45.03
73016;BME280;61893;50.074;14.440;2022-08-21T13:24:18;98406.66;;;25.10;44.44
73016;BME280;61893;50.074;14.440;2022-08-21T13:26:45;98408.16;;;24.67;46.01
73016;BME280;61893;50.074;14.440;2022-08-21T13:29:16;98398.25;;;24.95;44.65
73016;BME280;61893;50.074;14.440;2022-08-21T13:31:52;98406.19;;;24.80;44.50
73016;BME280;61893;50.074;14.440;2022-08-21T13:34:42;98389.66;;;24.36;45.80
73016;BME280;61893;50.074;14.440;2022-08-21T13:37:49;98398.00;;;25.13;44.25
73016;BME280;61893;50.074;14.440;2022-08-21T13:40:42;98397.25;;;25.18;44.76
73016;BME280;61893;50.074;14.440;2022-08-21T13:43:20;98397.50;;;24.20;46.36
73016;BME280;61893;50.074;14.440;2022-08-21T13:45:51;98392.03;;;24.03;46.50
73016;BME280;61893;50.074;14.440;2022-08-21T13:48:34;98395.31;;;23.77;47.18
73016;BME280;61893;50.074;14.440;2022-08-21T13:51:13;98394.09;;;23.96;46.63
73016;BME280;61893;50.074;14.440;2022-08-21T13:53:49;98398.50;;;24.43;45.68
73016;BME280;61893;50.074;14.440;2022-08-21T13:56:27;98388.38;;;23.57;47.32
73016;BME280;61893;50.074;14.440;2022-08-21T13:59:02;98397.28;;;24.67;45.06
73016;BME280;61893;50.074;14.440;2022-08-21T14:04:44;98387.94;;;24.46;45.59
73016;BME280;61893;50.074;14.440;2022-08-21T14:07:28;98388.94;;;24.12;45.35
73016;BME280;61893;50.074;14.440;2022-08-21T14:09:55;98394.03;;;26.58;41.11
73016;BME280;61893;50.074;14.440;2022-08-21T14:12:27;98387.31;;;25.68;43.22
73016;BME280;61893;50.074;14.440;2022-08-21T14:15:08;98392.81;;;25.51;43.55
73016;BME280;61893;50.074;14.440;2022-08-21T14:17:38;98398.53;;;24.02;46.70
73016;BME280;61893;50.074;14.440;2022-08-21T14:20:11;98392.69;;;23.30;48.65
73016;BME280;61893;50.074;14.440;2022-08-21T14:22:45;98394.78;;;23.39;48.72
73016;BME280;61893;50.074;14.440;2022-08-21T14:28:28;98400.56;;;24.86;44.42
73016;BME280;61893;50.074;14.440;2022-08-21T14:30:55;98385.06;;;26.09;42.14
73016;BME280;61893;50.074;14.440;2022-08-21T14:33:39;98387.03;;;25.08;42.62
73016;BME280;61893;50.074;14.440;2022-08-21T14:36:05;98392.41;;;25.20;42.76
73016;BME280;61893;50.074;14.440;2022-08-21T14:38:47;98380.59;;;25.14;42.76
73016;BME280;61893;50.074;14.440;2022-08-21T14:41:18;98373.69;;;25.46;41.69
73016;BME280;61893;50.074;14.440;2022-08-21T14:43:57;98385.75;;;24.32;43.53
73016;BME280;61893;50.074;14.440;2022-08-21T14:46:41;98390.06;;;23.99;44.32
73016;BME280;61893;50.074;14.440;2022-08-21T14:49:07;98393.69;;;23.76;45.04
73016;BME280;61893;50.074;14.440;2022-08-21T14:51:48;98394.91;;;23.45;45.08
73016;BME280;61893;50.074;14.440;2022-08-21T14:54:30;98383.34;;;23.37;44.16
73016;BME280;61893;50.074;14.440;2022-08-21T14:57:01;98382.19;;;23.86;43.36
73016;BME280;61893;50.074;14.440;2022-08-21T14:59:28;98386.47;;;24.56;42.11